Time;durP1;ratioP1;P1;durP2;ratioP2;P2;SDS_P1;SDS_P2;PMS_P1;PMS_P2;Temp;Humidity;BMP_temperature;BMP_pressure;BME280_temperature;BME280_humidity;BME280_pressure;Samples;Min_cycle;Max_cycle;Signal;HPM_P1;HPM_P2
2023/03/24 00:01:10;;;;;;;148.33;142.97;;;12.10;99.90;;;;;;5094462;28;20450;-77
2023/03/24 00:03:44;;;;;;;198.70;191.93;;;12.00;99.90;;;;;;5094217;28;20450;-78
2023/03/24 00:06:12;;;;;;;165.67;160.17;;;12.10;99.90;;;;;;5094343;28;20511;-78
2023/03/24 00:12:02;;;;;;;143.77;138.67;;;12.20;99.90;;;;;;5093939;28;20449;-78
2023/03/24 00:14:29;;;;;;;140.30;135.23;;;12.20;99.90;;;;;;5094139;28;20481;-78
2023/03/24 00:16:57;;;;;;;158.87;153.53;;;12.20;99.90;;;;;;5093991;28;20847;-78
2023/03/24 00:19:25;;;;;;;191.17;184.77;;;12.30;99.90;;;;;;5094052;28;20480;-78
2023/03/24 00:21:54;;;;;;;166.83;161.03;;;12.20;99.90;;;;;;5093363;28;20454;-77
2023/03/24 00:24:22;;;;;;;174.50;168.63;;;12.20;99.90;;;;;;5093953;28;20454;-78
2023/03/24 00:26:50;;;;;;;197.47;190.77;;;12.20;99.90;;;;;;5093858;28;20460;-78
2023/03/24 00:29:18;;;;;;;219.70;212.40;;;12.10;99.90;;;;;;5093828;28;20505;-77
2023/03/24 00:31:46;;;;;;;271.87;262.87;;;12.10;99.90;;;;;;5093074;28;20457;-78
2023/03/24 00:34:12;;;;;;;328.03;316.83;;;12.20;99.90;;;;;;5093527;28;20458;-77
2023/03/24 00:36:44;;;;;;;324.00;312.90;;;12.10;99.90;;;;;;5093622;28;20477;-77
2023/03/24 00:39:10;;;;;;;372.07;358.47;;;12.10;99.90;;;;;;5093507;28;20477;-78
2023/03/24 00:41:37;;;;;;;435.23;417.43;;;12.00;99.90;;;;;;5093476;28;20528;-78
2023/03/24 00:44:05;;;;;;;322.07;310.73;;;12.00;99.90;;;;;;5093371;28;20454;-78
2023/03/24 00:46:32;;;;;;;408.77;391.50;;;12.10;99.90;;;;;;5093308;28;20504;-77
2023/03/24 00:49:04;;;;;;;420.57;403.47;;;12.00;99.90;;;;;;5093173;28;20530;-77
2023/03/24 00:51:36;;;;;;;447.60;428.37;;;12.00;99.90;;;;;;5093523;28;20477;-78
2023/03/24 00:54:08;;;;;;;463.53;442.93;;;12.00;99.90;;;;;;5093416;28;20471;-77
2023/03/24 00:56:36;;;;;;;498.57;475.27;;;11.90;99.90;;;;;;5093159;28;20469;-77
2023/03/24 00:59:03;;;;;;;522.17;496.87;;;11.80;99.90;;;;;;5093304;28;20577;-78
2023/03/24 01:01:33;;;;;;;532.00;505.97;;;11.80;99.90;;;;;;5093307;28;20476;-78
2023/03/24 01:04:01;;;;;;;527.50;502.03;;;11.80;99.90;;;;;;5093061;28;20457;-78
2023/03/24 01:06:29;;;;;;;525.97;500.17;;;11.80;99.90;;;;;;5093191;28;20449;-77
2023/03/24 01:08:56;;;;;;;512.30;487.50;;;11.80;99.90;;;;;;5092873;28;20523;-78
2023/03/24 01:11:27;;;;;;;463.60;442.90;;;11.80;99.90;;;;;;5092702;28;20546;-78
2023/03/24 01:13:56;;;;;;;405.50;389.10;;;11.90;99.90;;;;;;5092787;28;20454;-77
2023/03/24 01:16:24;;;;;;;414.13;397.07;;;12.00;99.90;;;;;;5092781;28;20992;-78
2023/03/24 01:18:51;;;;;;;412.50;395.73;;;12.00;99.90;;;;;;5092699;28;20992;-78
2023/03/24 01:21:18;;;;;;;351.50;337.83;;;12.10;99.90;;;;;;5092435;28;20453;-78
2023/03/24 01:23:45;;;;;;;316.77;305.50;;;12.10;99.90;;;;;;5092459;28;20518;-78
2023/03/24 01:26:12;;;;;;;303.03;292.30;;;12.30;99.90;;;;;;5074874;28;20454;-78
2023/03/24 01:28:42;;;;;;;321.70;310.53;;;12.40;99.90;;;;;;5074462;28;20528;-77
2023/03/24 01:31:10;;;;;;;338.63;326.83;;;12.40;99.90;;;;;;5092562;28;20509;-78
2023/03/24 01:33:37;;;;;;;313.30;302.00;;;12.40;99.90;;;;;;5092509;28;20450;-78
2023/03/24 01:36:05;;;;;;;317.47;306.40;;;12.40;99.90;;;;;;5091834;28;20944;-78
2023/03/24 01:38:33;;;;;;;279.13;269.77;;;12.50;99.90;;;;;;5092248;28;20473;-77
2023/03/24 01:40:59;;;;;;;250.00;241.57;;;12.50;99.90;;;;;;5092463;28;20449;-77
2023/03/24 01:43:30;;;;;;;240.67;232.57;;;12.60;99.90;;;;;;5092310;28;20455;-78
2023/03/24 01:46:17;;;;;;;310.00;298.90;;;12.50;99.90;;;;;;5092574;28;20453;-78
2023/03/24 01:48:50;;;;;;;250.83;242.63;;;12.60;99.90;;;;;;5092233;28;20477;-78
2023/03/24 01:51:21;;;;;;;206.53;199.53;;;12.70;99.90;;;;;;5075086;28;20454;-78
2023/03/24 01:53:54;;;;;;;161.80;156.30;;;12.70;99.90;;;;;;5092198;28;20453;-78
2023/03/24 01:56:21;;;;;;;171.30;165.50;;;12.70;99.90;;;;;;5092143;28;20827;-78
2023/03/24 01:59:01;;;;;;;156.03;150.67;;;12.60;99.90;;;;;;5091999;28;20495;-78
2023/03/24 02:01:30;;;;;;;205.00;197.93;;;12.70;99.90;;;;;;5092020;28;20459;-78
2023/03/24 02:04:02;;;;;;;165.23;159.37;;;12.70;99.90;;;;;;5091978;28;20536;-79
2023/03/24 02:06:30;;;;;;;173.43;167.23;;;12.70;99.90;;;;;;5092286;28;20507;-78
2023/03/24 02:09:00;;;;;;;178.73;172.83;;;12.70;99.90;;;;;;5091891;28;20511;-78
2023/03/24 02:11:30;;;;;;;188.37;182.00;;;12.90;99.90;;;;;;5091888;28;20499;-79
2023/03/24 02:13:57;;;;;;;209.17;202.20;;;12.90;99.90;;;;;;5073629;28;20459;-79
2023/03/24 02:16:44;;;;;;;251.87;243.73;;;13.00;99.90;;;;;;5092024;28;20449;-78
2023/03/24 02:19:47;;;;;;;257.97;249.60;;;12.90;99.90;;;;;;5073710;28;20474;-79
2023/03/24 02:22:41;;;;;;;281.50;272.20;;;13.00;99.90;;;;;;5091687;28;20461;-79
2023/03/24 02:25:46;;;;;;;266.40;257.80;;;13.00;99.90;;;;;;5092098;28;20486;-78
2023/03/24 02:28:24;;;;;;;240.60;232.80;;;13.00;99.90;;;;;;5091739;28;20853;-78
2023/03/24 02:31:23;;;;;;;212.30;205.37;;;13.10;99.90;;;;;;5091422;28;20453;-78
2023/03/24 02:34:33;;;;;;;229.10;221.80;;;13.10;99.90;;;;;;5091777;28;20484;-78
2023/03/24 02:37:53;;;;;;;211.33;204.33;;;13.00;99.90;;;;;;5091980;28;20485;-78
2023/03/24 02:40:29;;;;;;;205.00;198.33;;;13.10;99.90;;;;;;5091754;28;20457;-78
2023/03/24 02:43:17;;;;;;;178.13;171.93;;;13.10;99.90;;;;;;5091195;28;20455;-78
2023/03/24 02:45:56;;;;;;;171.23;165.53;;;13.10;99.90;;;;;;5092262;28;20540;-78
2023/03/24 02:48:32;;;;;;;74.27;71.27;;;13.20;99.90;;;;;;5095500;28;20464;-78
2023/03/24 02:51:08;;;;;;;52.50;50.30;;;13.20;99.90;;;;;;5095799;28;20455;-78
2023/03/24 02:53:42;;;;;;;38.83;37.23;;;13.30;99.90;;;;;;5095414;28;20453;-78
2023/03/24 02:56:18;;;;;;;34.50;32.60;;;13.30;99.90;;;;;;5078547;28;20909;-78
2023/03/24 02:58:49;;;;;;;34.50;32.60;;;13.40;99.90;;;;;;5095547;28;20473;-78
2023/03/24 03:01:29;;;;;;;13.53;12.57;;;13.40;99.90;;;;;;5095497;28;20460;-78
2023/03/24 03:04:00;;;;;;;7.97;7.27;;;13.50;99.90;;;;;;5095000;28;20813;-79
2023/03/24 03:06:30;;;;;;;7.43;6.73;;;13.70;99.90;;;;;;5095469;28;20468;-78
2023/03/24 03:09:00;;;;;;;7.23;6.53;;;13.70;99.90;;;;;;5095376;28;21003;-78
2023/03/24 03:11:30;;;;;;;7.90;7.13;;;13.80;99.90;;;;;;5095139;28;20949;-78
2023/03/24 03:14:01;;;;;;;7.10;4.03;;;13.80;99.90;;;;;;5095114;28;20454;-78
2023/03/24 03:16:37;;;;;;;6.10;4.67;;;14.00;99.90;;;;;;5095211;28;20449;-78
2023/03/24 03:19:10;;;;;;;6.63;5.27;;;13.90;99.90;;;;;;5076880;28;20489;-78
2023/03/24 03:21:42;;;;;;;6.97;5.07;;;13.90;99.90;;;;;;5095263;28;20457;-78
2023/03/24 03:24:14;;;;;;;7.40;5.60;;;14.00;99.90;;;;;;5095093;28;20449;-79
2023/03/24 03:26:44;;;;;;;5.17;4.13;;;13.90;99.90;;;;;;5095094;28;20449;-78
2023/03/24 03:29:15;;;;;;;5.90;4.43;;;14.00;99.90;;;;;;5094706;28;20465;-79
2023/03/24 03:31:50;;;;;;;5.60;5.00;;;14.00;99.90;;;;;;5094870;28;20465;-78
2023/03/24 03:34:27;;;;;;;6.03;4.23;;;14.00;99.90;;;;;;5076879;28;20448;-78
2023/03/24 03:36:57;;;;;;;6.10;4.17;;;13.90;99.90;;;;;;5076947;28;20448;-78
2023/03/24 03:39:29;;;;;;;5.80;3.40;;;13.90;99.90;;;;;;5076986;28;20473;-78
2023/03/24 03:41:58;;;;;;;6.13;3.63;;;13.90;99.90;;;;;;5059945;28;20460;-78
2023/03/24 03:44:26;;;;;;;7.20;3.80;;;14.00;99.90;;;;;;5094649;28;20819;-78
2023/03/24 03:46:53;;;;;;;5.83;3.93;;;14.00;99.90;;;;;;5094731;28;20449;-78
2023/03/24 03:49:20;;;;;;;6.03;4.10;;;13.90;99.90;;;;;;5094418;28;20477;-78
2023/03/24 03:51:47;;;;;;;6.40;4.47;;;13.90;99.90;;;;;;5094089;28;20453;-78
2023/03/24 03:54:16;;;;;;;6.67;3.73;;;13.90;99.90;;;;;;5094492;28;20472;-78
2023/03/24 03:56:45;;;;;;;6.47;3.23;;;13.90;99.90;;;;;;5094227;28;20454;-78
2023/03/24 03:59:26;;;;;;;4.70;3.60;;;14.00;99.90;;;;;;5093721;28;20859;-78
2023/03/24 04:01:53;;;;;;;6.40;3.67;;;14.00;99.90;;;;;;5094242;28;20980;-78
2023/03/24 04:04:39;;;;;;;6.93;3.27;;;14.00;99.90;;;;;;5094214;28;20450;-78
2023/03/24 04:07:19;;;;;;;5.60;3.73;;;14.20;99.90;;;;;;5076253;28;20458;-78
2023/03/24 04:10:04;;;;;;;6.83;3.50;;;14.10;99.90;;;;;;5094278;28;20453;-78
2023/03/24 04:12:56;;;;;;;6.13;3.70;;;14.10;99.90;;;;;;5093996;28;20460;-79
2023/03/24 04:15:44;;;;;;;9.60;3.37;;;14.10;99.90;;;;;;5093879;28;20453;-78
2023/03/24 04:18:43;;;;;;;4.87;2.80;;;14.10;99.90;;;;;;5073880;28;20481;-78
2023/03/24 04:21:35;;;;;;;7.50;3.40;;;14.00;99.90;;;;;;5094605;28;20450;-78
2023/03/24 04:24:17;;;;;;;5.70;3.40;;;14.00;99.90;;;;;;5093832;28;20454;-78
2023/03/24 04:26:54;;;;;;;6.47;3.90;;;13.80;99.90;;;;;;5094103;28;20453;-78
2023/03/24 04:29:30;;;;;;;5.70;5.10;;;13.70;99.90;;;;;;5093586;28;20470;-78
2023/03/24 04:32:04;;;;;;;11.30;10.50;;;13.50;99.90;;;;;;5093607;28;20463;-77
2023/03/24 04:34:35;;;;;;;13.87;12.97;;;13.20;99.90;;;;;;5093914;28;20453;-77
2023/03/24 04:37:05;;;;;;;14.73;13.77;;;13.20;99.90;;;;;;5093697;28;20464;-77
2023/03/24 04:39:37;;;;;;;21.03;19.83;;;13.10;99.90;;;;;;5093516;28;20564;-77
2023/03/24 04:42:08;;;;;;;25.30;24.00;;;12.90;99.90;;;;;;5092999;28;20540;-77
2023/03/24 04:44:35;;;;;;;35.60;33.97;;;12.90;99.90;;;;;;5093742;28;20462;-77
2023/03/24 04:47:06;;;;;;;46.77;44.80;;;12.80;99.90;;;;;;5093596;28;20818;-77
2023/03/24 04:49:37;;;;;;;66.23;63.53;;;12.80;99.90;;;;;;5093446;28;20495;-77
2023/03/24 04:52:07;;;;;;;69.77;66.97;;;12.70;99.90;;;;;;5075534;28;20457;-77
2023/03/24 04:54:34;;;;;;;96.73;93.13;;;12.60;99.90;;;;;;5093265;28;20492;-77
2023/03/24 04:57:01;;;;;;;108.27;104.43;;;12.60;99.90;;;;;;5093479;28;20453;-77
2023/03/24 04:59:30;;;;;;;107.57;103.57;;;12.60;99.90;;;;;;5092738;28;20485;-77
2023/03/24 05:01:57;;;;;;;99.63;95.73;;;12.60;99.90;;;;;;5092978;28;20551;-77
2023/03/24 05:04:28;;;;;;;104.77;100.87;;;12.60;99.90;;;;;;5075266;28;20453;-77
2023/03/24 05:06:55;;;;;;;59.37;56.87;;;12.50;99.90;;;;;;5093133;28;20949;-77
2023/03/24 05:09:24;;;;;;;32.77;31.10;;;12.50;99.90;;;;;;5091812;28;20465;-77
2023/03/24 05:11:51;;;;;;;10.20;9.40;;;12.40;99.90;;;;;;5092710;28;20964;-78
2023/03/24 05:14:18;;;;;;;8.00;7.40;;;12.40;99.90;;;;;;5075055;28;20460;-77
2023/03/24 05:16:48;;;;;;;6.10;5.50;;;12.40;99.90;;;;;;5092846;28;20460;-79
2023/03/24 05:19:21;;;;;;;9.70;8.90;;;12.30;99.90;;;;;;5092547;28;20481;-79
2023/03/24 05:22:11;;;;;;;8.37;7.57;;;12.10;99.90;;;;;;5092490;28;20542;-79
2023/03/24 05:25:27;;;;;;;9.37;8.67;;;12.20;99.90;;;;;;5092462;28;20446;-80
2023/03/24 05:30:33;;;;;;;10.60;9.67;;;12.20;99.90;;;;;;5650387;22;20492;-77
2023/03/24 05:33:00;;;;;;;15.27;13.90;;;12.20;99.90;;;;;;5074345;28;20949;-78
2023/03/24 05:35:27;;;;;;;19.67;18.27;;;12.10;99.90;;;;;;5074575;28;20481;-78
2023/03/24 05:37:56;;;;;;;7.17;6.47;;;12.10;99.90;;;;;;5092345;28;20492;-77
2023/03/24 05:40:23;;;;;;;6.57;4.07;;;11.80;99.90;;;;;;5092373;28;20445;-78
2023/03/24 05:42:53;;;;;;;7.73;3.47;;;11.60;99.90;;;;;;5092419;28;20506;-78
2023/03/24 05:45:20;;;;;;;6.40;3.90;;;11.60;99.90;;;;;;5092759;28;20527;-78
2023/03/24 05:47:48;;;;;;;4.23;3.10;;;11.30;99.90;;;;;;5092561;28;20501;-77
2023/03/24 05:50:14;;;;;;;7.93;3.57;;;11.20;99.90;;;;;;5092018;28;21055;-78
2023/03/24 05:52:41;;;;;;;7.00;3.03;;;11.10;99.90;;;;;;5092105;28;20453;-77
2023/03/24 05:55:14;;;;;;;5.80;3.83;;;11.00;99.90;;;;;;5092281;28;20540;-77
2023/03/24 05:57:42;;;;;;;7.47;5.10;;;10.90;99.90;;;;;;5092539;28;20466;-79
2023/03/24 06:00:16;;;;;;;8.90;6.43;;;10.70;99.90;;;;;;5092387;28;20460;-78
2023/03/24 06:02:44;;;;;;;11.13;9.80;;;10.60;99.90;;;;;;5092297;28;20445;-77
2023/03/24 06:05:12;;;;;;;15.53;13.80;;;10.60;99.90;;;;;;5092211;28;20450;-77
2023/03/24 06:07:41;;;;;;;22.50;21.17;;;10.60;99.90;;;;;;5091898;28;20465;-78
2023/03/24 06:10:09;;;;;;;19.63;18.33;;;10.60;99.90;;;;;;5091861;28;20843;-77
2023/03/24 06:12:37;;;;;;;23.50;22.10;;;10.60;99.90;;;;;;5091875;28;20506;-77
2023/03/24 06:15:04;;;;;;;23.80;22.20;;;10.60;99.90;;;;;;5091629;28;20945;-77
2023/03/24 06:17:32;;;;;;;24.10;22.80;;;10.60;99.90;;;;;;5091556;28;20485;-77
2023/03/24 06:20:04;;;;;;;32.77;31.07;;;10.60;99.90;;;;;;5091349;28;20456;-77
2023/03/24 06:22:32;;;;;;;44.57;42.77;;;10.70;99.90;;;;;;5091205;28;20833;-77
2023/03/24 06:24:59;;;;;;;55.67;53.17;;;10.70;99.90;;;;;;5091433;28;20453;-77
2023/03/24 06:27:29;;;;;;;61.87;59.37;;;10.70;99.90;;;;;;5091406;28;20823;-77
2023/03/24 06:30:00;;;;;;;55.77;53.47;;;10.60;99.90;;;;;;5091317;28;20457;-78
2023/03/24 06:32:27;;;;;;;33.40;31.60;;;10.60;99.90;;;;;;5091119;28;20446;-77
2023/03/24 06:34:54;;;;;;;8.50;7.80;;;10.60;99.90;;;;;;5073791;28;20814;-77
2023/03/24 06:37:22;;;;;;;10.60;6.53;;;10.60;99.90;;;;;;5091584;28;20462;-77
2023/03/24 06:39:49;;;;;;;9.47;4.27;;;10.70;99.90;;;;;;5091489;28;20481;-77
2023/03/24 06:42:17;;;;;;;7.43;4.70;;;10.80;99.90;;;;;;5091434;28;20445;-77
2023/03/24 06:44:44;;;;;;;6.03;3.20;;;10.90;99.90;;;;;;5091545;28;20510;-77
2023/03/24 06:47:12;;;;;;;4.57;2.50;;;10.80;99.90;;;;;;5073446;28;20463;-77
2023/03/24 06:49:39;;;;;;;7.73;2.73;;;10.80;99.90;;;;;;5091715;28;20469;-77
2023/03/24 06:52:18;;;;;;;6.60;2.17;;;10.70;99.90;;;;;;5090678;28;20454;-83
2023/03/24 06:54:45;;;;;;;14.53;3.77;;;10.60;99.90;;;;;;5091229;28;20463;-77
2023/03/24 06:57:12;;;;;;;5.23;2.33;;;10.60;99.90;;;;;;5091347;28;20459;-77
2023/03/24 06:59:39;;;;;;;11.73;2.80;;;10.50;99.90;;;;;;5091068;28;20480;-77
2023/03/24 07:02:06;;;;;;;10.23;2.90;;;10.50;99.90;;;;;;5089728;28;20453;-77
2023/03/24 07:04:35;;;;;;;10.87;3.50;;;10.40;99.90;;;;;;5090773;28;20949;-76
2023/03/24 07:07:02;;;;;;;6.30;2.70;;;10.40;99.90;;;;;;5091096;28;20457;-77
2023/03/24 07:09:29;;;;;;;8.13;3.73;;;10.40;99.90;;;;;;5090756;28;20477;-77
2023/03/24 07:11:56;;;;;;;11.97;2.90;;;10.40;99.90;;;;;;5090331;28;20987;-77
2023/03/24 07:14:25;;;;;;;11.43;3.53;;;10.40;99.90;;;;;;5091100;28;20471;-78
2023/03/24 07:16:52;;;;;;;12.60;4.03;;;10.40;99.90;;;;;;5090926;28;20518;-78
2023/03/24 07:19:19;;;;;;;11.00;2.90;;;10.30;99.90;;;;;;5072808;28;21011;-77
2023/03/24 07:21:49;;;;;;;15.03;4.10;;;10.40;99.90;;;;;;5090718;28;20481;-77
2023/03/24 07:24:16;;;;;;;16.07;3.90;;;10.40;99.90;;;;;;5091069;28;20457;-76
2023/03/24 07:26:43;;;;;;;11.23;3.93;;;10.40;99.90;;;;;;5072799;28;20460;-76
2023/03/24 07:29:12;;;;;;;14.53;3.97;;;10.40;99.90;;;;;;5091126;28;20474;-77
2023/03/24 07:31:39;;;;;;;7.77;4.20;;;10.40;99.90;;;;;;5091011;28;20983;-76
2023/03/24 07:34:06;;;;;;;7.57;4.67;;;10.50;99.90;;;;;;5093597;28;20492;-77
2023/03/24 07:36:33;;;;;;;12.20;5.67;;;10.60;99.90;;;;;;5094904;28;20448;-77
2023/03/24 07:39:03;;;;;;;12.43;5.60;;;10.50;99.90;;;;;;5094430;28;20481;-77
2023/03/24 07:41:31;;;;;;;11.23;6.23;;;10.70;99.90;;;;;;5077000;28;20478;-80
2023/03/24 07:43:58;;;;;;;9.93;4.40;;;10.60;99.90;;;;;;5094225;28;20456;-77
2023/03/24 07:46:25;;;;;;;9.00;3.97;;;10.50;99.90;;;;;;5094763;28;20449;-77
2023/03/24 07:48:52;;;;;;;7.90;3.43;;;10.50;99.90;;;;;;5094541;28;20845;-77
2023/03/24 07:51:18;;;;;;;10.90;3.77;;;10.60;99.90;;;;;;5094503;28;20450;-77
2023/03/24 07:53:46;;;;;;;8.03;3.50;;;10.70;99.90;;;;;;5094258;28;20450;-77
2023/03/24 07:56:14;;;;;;;10.90;4.00;;;10.80;99.90;;;;;;5094371;28;20449;-77
2023/03/24 07:58:41;;;;;;;12.40;3.40;;;10.90;99.90;;;;;;5094189;28;21156;-76
2023/03/24 08:01:09;;;;;;;9.60;3.90;;;11.00;99.90;;;;;;5094179;28;20450;-76
2023/03/24 08:03:36;;;;;;;9.73;3.10;;;11.00;99.90;;;;;;5073963;28;20902;-77
2023/03/24 08:06:03;;;;;;;8.20;2.10;;;11.00;99.90;;;;;;5075615;28;20940;-77
2023/03/24 08:08:31;;;;;;;5.70;2.20;;;11.20;99.90;;;;;;5093512;28;20483;-77
2023/03/24 08:10:57;;;;;;;9.50;3.07;;;11.60;99.90;;;;;;5093922;28;20480;-77
2023/03/24 08:13:26;;;;;;;15.13;2.77;;;12.00;99.90;;;;;;5091831;28;20450;-77
2023/03/24 08:15:53;;;;;;;9.23;2.80;;;12.20;99.90;;;;;;5073392;28;20500;-77
2023/03/24 08:18:20;;;;;;;10.33;2.53;;;12.50;99.90;;;;;;5073048;28;20478;-77
2023/03/24 08:20:48;;;;;;;8.43;2.50;;;12.80;99.90;;;;;;5071793;28;20478;-76
2023/03/24 08:23:15;;;;;;;11.70;3.00;;;13.10;99.90;;;;;;5071899;28;20481;-77
2023/03/24 08:25:42;;;;;;;7.40;2.90;;;13.50;99.90;;;;;;5073794;28;20454;-77
2023/03/24 08:28:09;;;;;;;17.03;3.07;;;13.80;99.90;;;;;;5090385;28;20466;-77
2023/03/24 08:30:37;;;;;;;6.77;1.90;;;13.90;99.90;;;;;;5075719;28;20465;-77
2023/03/24 08:33:05;;;;;;;9.83;2.23;;;13.80;99.90;;;;;;5093291;28;20449;-78
2023/03/24 08:35:33;;;;;;;12.63;3.10;;;13.70;99.90;;;;;;5093490;28;20945;-77
2023/03/24 08:38:01;;;;;;;9.07;2.70;;;13.30;99.90;;;;;;5092732;28;20912;-77
2023/03/24 08:40:30;;;;;;;12.50;2.93;;;13.00;99.90;;;;;;5093769;28;20474;-77
2023/03/24 08:42:59;;;;;;;13.23;3.23;;;13.30;99.90;;;;;;5093584;28;20542;-77
2023/03/24 08:45:29;;;;;;;10.67;2.80;;;13.20;99.90;;;;;;5093286;28;20494;-77
2023/03/24 08:48:00;;;;;;;13.90;2.50;;;13.30;99.90;;;;;;5093888;28;20482;-77
2023/03/24 08:50:29;;;;;;;13.03;3.70;;;13.30;99.90;;;;;;5092638;28;20451;-77
2023/03/24 08:52:56;;;;;;;13.47;2.93;;;13.60;99.90;;;;;;5072771;28;20455;-77
2023/03/24 08:55:25;;;;;;;11.13;2.60;;;13.70;99.90;;;;;;5073190;28;20457;-77
2023/03/24 08:57:53;;;;;;;8.90;3.10;;;14.00;98.50;;;;;;5073022;28;20530;-77
2023/03/24 09:00:21;;;;;;;10.83;3.20;;;14.20;97.50;;;;;;5072741;28;20480;-77
2023/03/24 09:02:50;;;;;;;15.20;4.00;;;14.30;97.90;;;;;;5072377;28;20496;-77
2023/03/24 09:05:20;;;;;;;9.13;3.50;;;14.30;98.10;;;;;;5072850;28;20492;-77
2023/03/24 09:07:48;;;;;;;10.50;3.23;;;14.00;97.70;;;;;;5072213;28;20473;-77
2023/03/24 09:10:18;;;;;;;9.97;3.00;;;14.10;97.30;;;;;;5072738;28;20504;-77
2023/03/24 09:12:45;;;;;;;11.40;3.30;;;14.20;98.00;;;;;;5072357;28;20452;-77
2023/03/24 09:15:13;;;;;;;10.70;2.90;;;13.60;95.80;;;;;;5072929;28;20817;-77
2023/03/24 09:17:41;;;;;;;15.20;3.77;;;13.50;97.10;;;;;;5072354;28;21008;-77
2023/03/24 09:20:14;;;;;;;13.20;3.60;;;13.60;97.20;;;;;;5071481;28;20542;-79
2023/03/24 09:22:44;;;;;;;11.37;3.47;;;14.00;98.20;;;;;;5070911;28;20491;-77
2023/03/24 09:25:15;;;;;;;12.73;3.57;;;13.70;97.40;;;;;;5072475;28;20464;-77
2023/03/24 09:27:42;;;;;;;11.57;3.47;;;13.80;97.20;;;;;;5071720;28;20474;-77
2023/03/24 09:30:14;;;;;;;9.00;2.40;;;14.20;96.60;;;;;;5070646;28;20472;-77
2023/03/24 09:32:41;;;;;;;12.67;2.13;;;14.60;96.70;;;;;;5071689;28;20536;-77
2023/03/24 09:35:08;;;;;;;14.50;2.17;;;14.60;95.30;;;;;;5072049;28;20451;-77
2023/03/24 09:37:37;;;;;;;9.97;2.73;;;14.70;95.60;;;;;;5071738;28;21018;-77
2023/03/24 09:40:07;;;;;;;7.53;1.97;;;15.20;94.70;;;;;;5071754;28;20476;-77
2023/03/24 09:42:37;;;;;;;9.17;2.00;;;15.80;93.40;;;;;;5072170;28;20548;-77
2023/03/24 09:45:13;;;;;;;11.00;2.70;;;15.80;93.40;;;;;;5072423;28;20463;-77
2023/03/24 09:47:42;;;;;;;14.40;2.73;;;16.50;93.70;;;;;;5071730;28;20471;-77
2023/03/24 09:50:21;;;;;;;9.73;1.83;;;16.30;91.50;;;;;;5071590;28;20448;-78
2023/03/24 09:52:51;;;;;;;12.97;2.57;;;16.50;92.50;;;;;;5071658;28;20447;-77
2023/03/24 09:55:24;;;;;;;7.33;2.10;;;15.70;91.00;;;;;;5071360;28;20956;-77
2023/03/24 09:57:52;;;;;;;9.67;2.50;;;15.70;91.60;;;;;;5071690;28;20476;-77
2023/03/24 10:00:22;;;;;;;13.23;2.53;;;16.00;93.40;;;;;;5071997;28;20489;-77
2023/03/24 10:02:49;;;;;;;12.10;2.70;;;16.00;92.70;;;;;;5071238;28;20450;-77
2023/03/24 10:05:21;;;;;;;7.80;2.13;;;15.60;92.60;;;;;;5071690;28;20457;-77
2023/03/24 10:07:55;;;;;;;6.60;2.20;;;14.90;91.40;;;;;;5071634;28;20508;-77
2023/03/24 10:10:31;;;;;;;8.87;2.37;;;15.00;93.00;;;;;;5071462;28;20451;-77
2023/03/24 10:13:05;;;;;;;15.97;2.37;;;14.80;92.90;;;;;;5071261;28;20476;-77
2023/03/24 10:15:37;;;;;;;9.80;2.07;;;14.80;92.90;;;;;;5071425;28;20458;-77
2023/03/24 10:18:18;;;;;;;9.70;2.33;;;15.40;93.20;;;;;;5071689;28;20524;-77
2023/03/24 10:20:51;;;;;;;9.83;2.00;;;16.40;92.60;;;;;;5071332;28;20486;-77
2023/03/24 10:23:25;;;;;;;11.07;2.37;;;16.90;89.80;;;;;;5071220;28;20460;-77
2023/03/24 10:26:00;;;;;;;6.80;1.80;;;16.50;87.30;;;;;;5071137;28;20452;-78
2023/03/24 10:28:34;;;;;;;10.03;1.80;;;16.70;89.30;;;;;;5071519;28;20486;-77
2023/03/24 10:31:04;;;;;;;8.57;1.80;;;16.10;89.20;;;;;;5071225;28;20503;-77
2023/03/24 10:33:31;;;;;;;12.90;1.73;;;16.10;89.60;;;;;;5071270;28;20462;-77
2023/03/24 10:36:02;;;;;;;10.50;2.97;;;15.60;87.00;;;;;;5071026;28;20459;-77
2023/03/24 10:38:30;;;;;;;10.37;2.10;;;15.90;90.00;;;;;;5070983;28;20478;-77
2023/03/24 10:41:00;;;;;;;17.17;2.07;;;15.50;86.90;;;;;;5071290;28;20485;-77
2023/03/24 10:43:27;;;;;;;7.90;2.33;;;15.50;87.50;;;;;;5071092;28;20450;-77
2023/03/24 10:45:57;;;;;;;9.93;2.30;;;15.30;87.30;;;;;;5071242;28;20454;-77
2023/03/24 10:48:40;;;;;;;7.40;2.40;;;15.00;86.90;;;;;;5071115;28;20778;-77
2023/03/24 10:51:12;;;;;;;12.90;2.70;;;15.10;89.30;;;;;;5071257;28;20483;-77
2023/03/24 10:53:40;;;;;;;6.63;2.20;;;15.20;88.20;;;;;;5070784;28;20458;-77
2023/03/24 10:56:13;;;;;;;10.67;2.23;;;15.70;88.50;;;;;;5071158;28;20510;-77
2023/03/24 10:58:41;;;;;;;12.13;2.13;;;15.60;85.00;;;;;;5071108;28;20475;-77
2023/03/24 11:01:22;;;;;;;12.33;2.40;;;15.70;85.30;;;;;;5070828;28;20531;-77
2023/03/24 11:03:50;;;;;;;10.30;2.20;;;16.80;84.60;;;;;;5070911;28;20466;-77
2023/03/24 11:06:20;;;;;;;7.73;1.47;;;16.10;83.40;;;;;;5071296;28;21086;-77
2023/03/24 11:08:46;;;;;;;14.93;2.80;;;15.30;85.30;;;;;;5072955;28;20846;-77
2023/03/24 11:11:29;;;;;;;10.93;2.13;;;14.80;87.80;;;;;;5074659;28;20455;-77
2023/03/24 11:13:57;;;;;;;7.70;1.87;;;14.70;86.80;;;;;;5074489;28;20958;-77
2023/03/24 11:16:29;;;;;;;7.67;2.17;;;14.80;89.20;;;;;;5074855;28;20459;-77
2023/03/24 11:18:58;;;;;;;5.77;1.70;;;14.70;90.20;;;;;;5073164;28;20476;-77
2023/03/24 11:21:26;;;;;;;9.37;1.67;;;14.50;88.30;;;;;;5074509;28;20555;-77
2023/03/24 11:23:53;;;;;;;9.90;1.80;;;14.60;88.40;;;;;;5074300;28;20449;-77
2023/03/24 11:26:28;;;;;;;11.90;1.70;;;14.90;86.40;;;;;;5074357;28;20465;-77
2023/03/24 11:28:58;;;;;;;8.70;2.17;;;15.00;87.00;;;;;;5074453;28;20567;-77
2023/03/24 11:31:29;;;;;;;6.20;1.53;;;15.70;84.70;;;;;;5073986;28;20988;-77
2023/03/24 11:33:59;;;;;;;10.73;2.10;;;15.80;86.40;;;;;;5074175;28;20471;-77
2023/03/24 11:36:48;;;;;;;9.83;1.80;;;16.10;84.60;;;;;;5074250;28;20495;-77
2023/03/24 11:39:21;;;;;;;13.13;2.40;;;16.20;85.50;;;;;;5074236;28;20482;-77
2023/03/24 11:42:01;;;;;;;13.70;2.47;;;16.60;83.00;;;;;;5074117;28;20546;-77
2023/03/24 11:44:33;;;;;;;7.60;1.80;;;17.40;83.40;;;;;;5074070;28;20451;-77
2023/03/24 11:47:04;;;;;;;12.43;1.80;;;18.10;78.90;;;;;;5073908;28;20478;-77
2023/03/24 11:49:34;;;;;;;5.63;1.30;;;17.10;73.60;;;;;;5074131;28;20493;-77
2023/03/24 11:52:04;;;;;;;7.30;2.23;;;16.40;76.80;;;;;;5073866;28;20459;-77
2023/03/24 11:54:36;;;;;;;7.03;1.67;;;16.00;80.40;;;;;;5074445;28;20494;-77
2023/03/24 11:57:07;;;;;;;10.67;1.90;;;15.60;81.50;;;;;;5073892;28;20452;-77
2023/03/24 11:59:41;;;;;;;10.40;1.90;;;15.40;81.90;;;;;;5073529;28;20471;-77
2023/03/24 12:02:19;;;;;;;5.83;1.37;;;15.40;81.90;;;;;;5073639;28;20455;-77
2023/03/24 12:04:59;;;;;;;8.07;1.77;;;15.30;81.80;;;;;;5072806;28;20454;-77
2023/03/24 12:07:57;;;;;;;8.03;2.23;;;15.30;81.80;;;;;;5073835;28;20481;-77
2023/03/24 12:10:33;;;;;;;6.80;1.70;;;16.40;82.80;;;;;;5066260;28;20459;-77
2023/03/24 12:13:07;;;;;;;8.10;1.83;;;17.70;76.10;;;;;;5073482;28;20449;-78
2023/03/24 12:15:49;;;;;;;7.70;1.40;;;18.40;76.70;;;;;;5073669;28;20450;-77
2023/03/24 12:18:36;;;;;;;6.57;1.57;;;18.30;68.60;;;;;;5073207;28;20530;-78
2023/03/24 12:21:15;;;;;;;7.70;1.57;;;17.90;68.20;;;;;;5073465;28;20484;-78
2023/03/24 12:23:51;;;;;;;6.87;1.73;;;17.10;67.50;;;;;;5073301;28;20452;-77
2023/03/24 12:26:21;;;;;;;8.20;1.50;;;17.80;66.90;;;;;;5073554;28;20460;-77
2023/03/24 12:29:28;;;;;;;10.13;2.03;;;18.00;63.90;;;;;;5073636;28;20484;-78
2023/03/24 12:32:19;;;;;;;5.20;1.30;;;16.70;64.60;;;;;;5072898;28;20547;-77
2023/03/24 12:35:20;;;;;;;11.83;2.30;;;16.00;69.80;;;;;;5073211;28;20446;-77
2023/03/24 12:37:56;;;;;;;8.43;2.10;;;16.00;68.40;;;;;;5073260;28;20472;-77
2023/03/24 12:40:51;;;;;;;11.90;3.40;;;17.20;69.90;;;;;;5073101;28;20501;-77
2023/03/24 12:43:29;;;;;;;16.50;2.20;;;17.40;67.70;;;;;;5071557;28;20951;-77
2023/03/24 12:45:59;;;;;;;9.07;1.60;;;17.40;67.80;;;;;;5073156;28;20453;-77
2023/03/24 12:48:43;;;;;;;11.33;2.53;;;17.10;69.60;;;;;;5073133;28;20481;-77
2023/03/24 12:51:20;;;;;;;11.40;3.73;;;16.80;64.70;;;;;;5072975;28;20453;-77
2023/03/24 12:53:59;;;;;;;9.83;1.50;;;16.80;67.20;;;;;;5072416;28;20492;-77
2023/03/24 12:56:31;;;;;;;13.67;1.80;;;16.30;64.70;;;;;;5072903;28;20458;-77
2023/03/24 12:59:02;;;;;;;6.00;1.17;;;16.20;65.50;;;;;;5071904;28;20476;-77
2023/03/24 13:01:35;;;;;;;8.47;1.77;;;15.70;67.90;;;;;;5072705;28;20479;-77
2023/03/24 13:04:10;;;;;;;7.20;1.23;;;15.70;72.60;;;;;;5072415;28;20454;-77